logo tempoitalia

Diretta Meteo Francoforte-sul-Meno, Germaniamercoledì 15 luglio ore 05:50

Mappa
Sereno 15 °C Pioggia 24 Ore: T.min 15 T.max 28
Ponente Sud/Sud-Ovest Km/h 9.3 Punto di rugiada: 14 °C Umidità: 93% Visibilità: 10 Km
Il sole sorge alle: 05:32 Il sole tramonta alle: 21:31
15 Luglio 2020 05:50 tempo osservato: Pioggia Pioggia 15 93 1013 vento: Nord S/SO 9.3
15 Luglio 2020 05:20 tempo osservato: Pioggia Pioggia 15 93 1012 vento: Nord S 7.4
15 Luglio 2020 04:50 tempo osservato: Pioggia Pioggia 15 93 1013 vento: Nord SO 9.3
15 Luglio 2020 04:20 tempo osservato: Pioggia Pioggia 15 93 1013 vento: Nord S/SO 11.1
15 Luglio 2020 03:50 tempo osservato: Pioggia Pioggia 15 100 1013 vento: Nord S 7.4
15 Luglio 2020 03:20 tempo osservato: Pioggia Pioggia 16 93 1013 vento: Nord N 5.5
15 Luglio 2020 02:50 tempo osservato: Molto Nuvoloso Molto Nuvoloso 15 100 1013 vento: Nord N 5.5
15 Luglio 2020 02:20 tempo osservato: Pioggia Pioggia 16 87 1013 vento: Nord N 5.5
15 Luglio 2020 01:50 tempo osservato: Pioggia Pioggia 15 100 1013 vento: Nord N 3.7
15 Luglio 2020 01:20 tempo osservato: Pioggia Pioggia 16 93 1013 vento: Nord N 5.5
15 Luglio 2020 00:50 tempo osservato: Pioggia Pioggia 16 93 1013 vento: Nord SE 9.3
15 Luglio 2020 00:20 tempo osservato: Pioggia Pioggia 16 93 1013 vento: Nord N 5.5
14 Luglio 2020 23:50 tempo osservato: Pioggia Pioggia 16 93 1014 vento: Nord N 3.7
14 Luglio 2020 23:20 tempo osservato: Pioggia Pioggia 17 77 1014 vento: Nord NO 11.1
14 Luglio 2020 22:50 tempo osservato: Pioggia Pioggia 18 67 1013 vento: Nord N 5.5
14 Luglio 2020 22:20 tempo osservato: Pioggia Pioggia 19 63 1013 vento: Nord NO 9.3
14 Luglio 2020 21:50 tempo osservato: Sereno Sereno 19 59 1013 vento: Nord O/NO 20.3
14 Luglio 2020 20:50 tempo osservato: Sereno Sereno 21 52 1012 vento: Nord NO 29.6
14 Luglio 2020 20:20 tempo osservato: Sereno Sereno 24 41 1012 vento: Nord O/NO 27.8
14 Luglio 2020 19:50 tempo osservato: Sereno Sereno 25 31 1011 vento: Nord O/SO 13
14 Luglio 2020 19:20 tempo osservato: Sereno Sereno 26 29 1011 vento: Nord SO 14.8
14 Luglio 2020 18:50 tempo osservato: Sereno Sereno 26 29 1011 vento: Nord O 14.8
14 Luglio 2020 17:50 tempo osservato: Sereno Sereno 26 27 1012 vento: Nord O 11.1
14 Luglio 2020 17:20 tempo osservato: Sereno Sereno 26 27 1012 vento: Nord SO 13
14 Luglio 2020 16:50 tempo osservato: Sereno Sereno 27 26 1012 vento: Nord S 11.1
14 Luglio 2020 16:20 tempo osservato: Sereno Sereno 26 27 1012 vento: Nord S/SO 14.8
14 Luglio 2020 15:50 tempo osservato: Sereno Sereno 27 26 1012 vento: Nord SO 18.5
14 Luglio 2020 15:20 tempo osservato: Sereno Sereno 28 24 1012 vento: Nord S 14.8
14 Luglio 2020 14:50 tempo osservato: Sereno Sereno 28 24 1012 vento: Nord S/SO 13
14 Luglio 2020 14:20 tempo osservato: Sereno Sereno 27 24 1013 vento: Nord S/SO 14.8
14 Luglio 2020 13:50 tempo osservato: Sereno Sereno 28 21 1013 vento: Nord N 13
14 Luglio 2020 13:20 tempo osservato: Sereno Sereno 28 23 1013 vento: Nord S/SE 13
14 Luglio 2020 12:50 tempo osservato: Sereno Sereno 27 24 1014 vento: Nord S 14.8
14 Luglio 2020 12:20 tempo osservato: Sereno Sereno 27 30 1014 vento: Nord N 9.3
14 Luglio 2020 11:50 tempo osservato: Sereno Sereno 26 31 1014 vento: Nord N 7.4
14 Luglio 2020 11:20 tempo osservato: Sereno Sereno 26 31 1015 vento: Nord N 7.4
14 Luglio 2020 10:50 tempo osservato: Sereno Sereno 25 33 1015 vento: Nord S 9.3
14 Luglio 2020 10:20 tempo osservato: Sereno Sereno 24 35 1015 vento: Nord S 9.3
14 Luglio 2020 09:50 tempo osservato: Sereno Sereno 23 40 1016 vento: Nord N 5.5
14 Luglio 2020 09:20 tempo osservato: Sereno Sereno 21 46 1016 vento: Nord N 3.7
14 Luglio 2020 08:50 tempo osservato: Sereno Sereno 20 49 1016 vento: Nord N 5.5
14 Luglio 2020 08:20 tempo osservato: Sereno Sereno 19 52 1016 vento: Nord N 5.5
14 Luglio 2020 07:50 tempo osservato: Sereno Sereno 18 55 1016 vento: Nord E/NE 7.4